sensor_id;sensor_type;location;lat;lon;timestamp;temperature;humidity
20714;DHT22;10518;50.742;4.226;2023-04-25T00:02:06;10.50;99.90
20714;DHT22;10518;50.742;4.226;2023-04-25T00:04:32;10.10;99.90
20714;DHT22;10518;50.742;4.226;2023-04-25T00:06:59;9.80;99.90
20714;DHT22;10518;50.742;4.226;2023-04-25T00:09:28;9.70;99.90
20714;DHT22;10518;50.742;4.226;2023-04-25T00:11:54;9.80;99.90
20714;DHT22;10518;50.742;4.226;2023-04-25T00:14:19;9.90;99.90
20714;DHT22;10518;50.742;4.226;2023-04-25T00:16:45;9.80;99.90
20714;DHT22;10518;50.742;4.226;2023-04-25T00:19:11;10.10;99.90
20714;DHT22;10518;50.742;4.226;2023-04-25T00:21:37;10.40;99.90
20714;DHT22;10518;50.742;4.226;2023-04-25T00:24:06;10.00;99.90
20714;DHT22;10518;50.742;4.226;2023-04-25T00:26:33;9.90;99.90
20714;DHT22;10518;50.742;4.226;2023-04-25T00:28:58;9.80;99.90
20714;DHT22;10518;50.742;4.226;2023-04-25T00:31:24;9.90;99.90
20714;DHT22;10518;50.742;4.226;2023-04-25T00:33:50;9.80;99.90
20714;DHT22;10518;50.742;4.226;2023-04-25T00:36:15;9.80;99.90
20714;DHT22;10518;50.742;4.226;2023-04-25T00:38:42;9.90;99.90
20714;DHT22;10518;50.742;4.226;2023-04-25T00:41:08;9.80;99.90
20714;DHT22;10518;50.742;4.226;2023-04-25T00:43:34;10.00;99.90
20714;DHT22;10518;50.742;4.226;2023-04-25T00:46:01;9.70;99.90
20714;DHT22;10518;50.742;4.226;2023-04-25T00:48:27;9.80;99.90
20714;DHT22;10518;50.742;4.226;2023-04-25T00:50:55;9.90;99.90
20714;DHT22;10518;50.742;4.226;2023-04-25T00:53:22;9.70;99.90
20714;DHT22;10518;50.742;4.226;2023-04-25T00:55:48;9.60;99.90
20714;DHT22;10518;50.742;4.226;2023-04-25T00:58:19;9.50;99.90
20714;DHT22;10518;50.742;4.226;2023-04-25T01:00:46;9.30;99.90
20714;DHT22;10518;50.742;4.226;2023-04-25T01:03:16;9.70;99.90
20714;DHT22;10518;50.742;4.226;2023-04-25T01:05:43;9.80;99.90
20714;DHT22;10518;50.742;4.226;2023-04-25T01:08:09;9.80;99.90
20714;DHT22;10518;50.742;4.226;2023-04-25T01:10:35;9.90;99.90
20714;DHT22;10518;50.742;4.226;2023-04-25T01:13:01;9.80;99.90
20714;DHT22;10518;50.742;4.226;2023-04-25T01:15:27;9.60;99.90
20714;DHT22;10518;50.742;4.226;2023-04-25T01:17:52;9.30;99.90
20714;DHT22;10518;50.742;4.226;2023-04-25T01:20:20;9.00;99.90
20714;DHT22;10518;50.742;4.226;2023-04-25T01:22:46;9.10;99.90
20714;DHT22;10518;50.742;4.226;2023-04-25T01:25:12;9.20;99.90
20714;DHT22;10518;50.742;4.226;2023-04-25T01:27:38;9.50;99.90
20714;DHT22;10518;50.742;4.226;2023-04-25T01:30:05;9.60;99.90
20714;DHT22;10518;50.742;4.226;2023-04-25T01:32:31;9.40;99.90
20714;DHT22;10518;50.742;4.226;2023-04-25T01:35:04;9.20;99.90
20714;DHT22;10518;50.742;4.226;2023-04-25T01:37:38;9.00;99.90
20714;DHT22;10518;50.742;4.226;2023-04-25T01:40:04;9.00;99.90
20714;DHT22;10518;50.742;4.226;2023-04-25T01:42:33;9.00;99.90
20714;DHT22;10518;50.742;4.226;2023-04-25T01:44:59;9.30;99.90
20714;DHT22;10518;50.742;4.226;2023-04-25T01:47:25;9.50;99.90
20714;DHT22;10518;50.742;4.226;2023-04-25T01:49:51;9.70;99.90
20714;DHT22;10518;50.742;4.226;2023-04-25T01:52:16;9.60;99.90
20714;DHT22;10518;50.742;4.226;2023-04-25T01:54:42;9.30;99.90
20714;DHT22;10518;50.742;4.226;2023-04-25T01:57:13;9.20;99.90
20714;DHT22;10518;50.742;4.226;2023-04-25T01:59:39;9.10;99.90
20714;DHT22;10518;50.742;4.226;2023-04-25T02:02:06;9.20;99.90
20714;DHT22;10518;50.742;4.226;2023-04-25T02:04:32;9.10;99.90
20714;DHT22;10518;50.742;4.226;2023-04-25T02:06:58;9.20;99.90
20714;DHT22;10518;50.742;4.226;2023-04-25T02:09:23;9.20;99.90
20714;DHT22;10518;50.742;4.226;2023-04-25T02:11:49;9.30;99.90
20714;DHT22;10518;50.742;4.226;2023-04-25T02:14:15;9.30;99.90
20714;DHT22;10518;50.742;4.226;2023-04-25T02:16:40;9.20;99.90
20714;DHT22;10518;50.742;4.226;2023-04-25T02:19:06;9.20;99.90
20714;DHT22;10518;50.742;4.226;2023-04-25T02:21:32;9.20;99.90
20714;DHT22;10518;50.742;4.226;2023-04-25T02:24:01;9.40;99.90
20714;DHT22;10518;50.742;4.226;2023-04-25T02:26:26;9.50;99.90
20714;DHT22;10518;50.742;4.226;2023-04-25T02:28:52;9.30;99.90
20714;DHT22;10518;50.742;4.226;2023-04-25T02:31:17;9.20;99.90
20714;DHT22;10518;50.742;4.226;2023-04-25T02:33:43;9.40;99.90
20714;DHT22;10518;50.742;4.226;2023-04-25T02:36:09;9.40;99.90
20714;DHT22;10518;50.742;4.226;2023-04-25T02:38:35;9.20;99.90
20714;DHT22;10518;50.742;4.226;2023-04-25T02:41:00;9.20;99.90
20714;DHT22;10518;50.742;4.226;2023-04-25T02:43:26;9.10;99.90
20714;DHT22;10518;50.742;4.226;2023-04-25T02:45:52;9.20;99.90
20714;DHT22;10518;50.742;4.226;2023-04-25T02:48:17;9.20;99.90
20714;DHT22;10518;50.742;4.226;2023-04-25T02:50:43;9.10;99.90
20714;DHT22;10518;50.742;4.226;2023-04-25T02:53:09;9.10;99.90
20714;DHT22;10518;50.742;4.226;2023-04-25T02:55:34;9.10;99.90
20714;DHT22;10518;50.742;4.226;2023-04-25T02:58:00;9.10;99.90
20714;DHT22;10518;50.742;4.226;2023-04-25T03:00:26;9.20;99.90
20714;DHT22;10518;50.742;4.226;2023-04-25T03:02:51;9.10;99.90
20714;DHT22;10518;50.742;4.226;2023-04-25T03:05:17;9.20;99.90
20714;DHT22;10518;50.742;4.226;2023-04-25T03:07:43;9.20;99.90
20714;DHT22;10518;50.742;4.226;2023-04-25T03:10:10;9.20;99.90
20714;DHT22;10518;50.742;4.226;2023-04-25T03:12:36;9.10;99.90
20714;DHT22;10518;50.742;4.226;2023-04-25T03:15:02;9.20;99.90
20714;DHT22;10518;50.742;4.226;2023-04-25T03:17:28;9.10;99.90
20714;DHT22;10518;50.742;4.226;2023-04-25T03:19:54;9.10;99.90
20714;DHT22;10518;50.742;4.226;2023-04-25T03:22:19;9.10;99.90
20714;DHT22;10518;50.742;4.226;2023-04-25T03:24:45;9.10;99.90
20714;DHT22;10518;50.742;4.226;2023-04-25T03:27:11;9.10;99.90
20714;DHT22;10518;50.742;4.226;2023-04-25T03:29:36;9.20;99.90
20714;DHT22;10518;50.742;4.226;2023-04-25T03:32:02;9.20;99.90
20714;DHT22;10518;50.742;4.226;2023-04-25T03:34:27;9.20;99.90
20714;DHT22;10518;50.742;4.226;2023-04-25T03:36:53;9.10;99.90
20714;DHT22;10518;50.742;4.226;2023-04-25T03:39:19;9.20;99.90
20714;DHT22;10518;50.742;4.226;2023-04-25T03:41:44;9.20;99.90
20714;DHT22;10518;50.742;4.226;2023-04-25T03:44:10;9.10;99.90
20714;DHT22;10518;50.742;4.226;2023-04-25T03:46:36;8.90;99.90
20714;DHT22;10518;50.742;4.226;2023-04-25T03:49:01;9.10;99.90
20714;DHT22;10518;50.742;4.226;2023-04-25T03:51:27;8.80;99.90
20714;DHT22;10518;50.742;4.226;2023-04-25T03:53:52;8.90;99.90
20714;DHT22;10518;50.742;4.226;2023-04-25T03:56:18;8.90;99.90
20714;DHT22;10518;50.742;4.226;2023-04-25T03:58:44;8.90;99.90
20714;DHT22;10518;50.742;4.226;2023-04-25T04:01:10;8.90;99.90
20714;DHT22;10518;50.742;4.226;2023-04-25T04:03:36;9.10;99.90
20714;DHT22;10518;50.742;4.226;2023-04-25T04:06:03;9.00;99.90
20714;DHT22;10518;50.742;4.226;2023-04-25T04:08:29;8.60;99.90
20714;DHT22;10518;50.742;4.226;2023-04-25T04:10:57;8.70;99.90
20714;DHT22;10518;50.742;4.226;2023-04-25T04:13:25;8.60;99.90
20714;DHT22;10518;50.742;4.226;2023-04-25T04:15:50;8.60;99.90
20714;DHT22;10518;50.742;4.226;2023-04-25T04:18:16;8.70;99.90
20714;DHT22;10518;50.742;4.226;2023-04-25T04:20:41;8.60;99.90
20714;DHT22;10518;50.742;4.226;2023-04-25T04:23:07;8.60;99.90
20714;DHT22;10518;50.742;4.226;2023-04-25T04:25:33;8.60;99.90
20714;DHT22;10518;50.742;4.226;2023-04-25T04:27:59;8.50;99.90
20714;DHT22;10518;50.742;4.226;2023-04-25T04:30:26;8.50;99.90
20714;DHT22;10518;50.742;4.226;2023-04-25T04:32:55;8.50;99.90
20714;DHT22;10518;50.742;4.226;2023-04-25T04:35:21;8.80;99.90
20714;DHT22;10518;50.742;4.226;2023-04-25T04:37:47;8.80;99.90
20714;DHT22;10518;50.742;4.226;2023-04-25T04:40:13;8.80;99.90
20714;DHT22;10518;50.742;4.226;2023-04-25T04:42:41;9.00;99.90
20714;DHT22;10518;50.742;4.226;2023-04-25T04:45:08;8.70;99.90
20714;DHT22;10518;50.742;4.226;2023-04-25T04:47:34;8.50;99.90
20714;DHT22;10518;50.742;4.226;2023-04-25T04:50:02;8.50;99.90
20714;DHT22;10518;50.742;4.226;2023-04-25T04:52:28;8.50;99.90
20714;DHT22;10518;50.742;4.226;2023-04-25T04:54:53;8.60;99.90
20714;DHT22;10518;50.742;4.226;2023-04-25T04:57:19;8.60;99.90
20714;DHT22;10518;50.742;4.226;2023-04-25T04:59:45;8.80;99.90
20714;DHT22;10518;50.742;4.226;2023-04-25T05:02:11;8.80;99.90
20714;DHT22;10518;50.742;4.226;2023-04-25T05:04:36;8.90;99.90
20714;DHT22;10518;50.742;4.226;2023-04-25T05:07:02;9.20;99.90
20714;DHT22;10518;50.742;4.226;2023-04-25T05:09:28;9.10;99.90
20714;DHT22;10518;50.742;4.226;2023-04-25T05:11:53;8.90;99.90
20714;DHT22;10518;50.742;4.226;2023-04-25T05:14:19;9.00;99.90
20714;DHT22;10518;50.742;4.226;2023-04-25T05:16:44;9.00;99.90
20714;DHT22;10518;50.742;4.226;2023-04-25T05:19:10;9.20;99.90
20714;DHT22;10518;50.742;4.226;2023-04-25T05:21:36;8.90;99.90
20714;DHT22;10518;50.742;4.226;2023-04-25T05:24:02;8.70;99.90
20714;DHT22;10518;50.742;4.226;2023-04-25T05:26:27;8.90;99.90
20714;DHT22;10518;50.742;4.226;2023-04-25T05:28:57;8.90;99.90
20714;DHT22;10518;50.742;4.226;2023-04-25T05:31:22;8.80;99.90
20714;DHT22;10518;50.742;4.226;2023-04-25T05:33:48;8.70;99.90
20714;DHT22;10518;50.742;4.226;2023-04-25T05:36:13;8.70;99.90
20714;DHT22;10518;50.742;4.226;2023-04-25T05:38:39;8.40;99.90
20714;DHT22;10518;50.742;4.226;2023-04-25T05:41:05;8.30;99.90
20714;DHT22;10518;50.742;4.226;2023-04-25T05:43:30;8.70;99.90
20714;DHT22;10518;50.742;4.226;2023-04-25T05:45:56;8.50;99.90
20714;DHT22;10518;50.742;4.226;2023-04-25T05:48:22;8.30;99.90
20714;DHT22;10518;50.742;4.226;2023-04-25T05:50:47;8.20;99.90
20714;DHT22;10518;50.742;4.226;2023-04-25T05:53:13;8.10;99.90
20714;DHT22;10518;50.742;4.226;2023-04-25T05:55:39;8.40;99.90
20714;DHT22;10518;50.742;4.226;2023-04-25T05:58:05;8.60;99.90
20714;DHT22;10518;50.742;4.226;2023-04-25T06:00:32;8.80;99.90
20714;DHT22;10518;50.742;4.226;2023-04-25T06:02:58;8.80;99.90
20714;DHT22;10518;50.742;4.226;2023-04-25T06:05:23;8.80;99.90
20714;DHT22;10518;50.742;4.226;2023-04-25T06:07:49;8.60;99.90
20714;DHT22;10518;50.742;4.226;2023-04-25T06:10:14;8.60;99.90
20714;DHT22;10518;50.742;4.226;2023-04-25T06:12:40;8.80;99.90
20714;DHT22;10518;50.742;4.226;2023-04-25T06:15:06;8.80;99.90
20714;DHT22;10518;50.742;4.226;2023-04-25T06:17:33;8.90;99.90
20714;DHT22;10518;50.742;4.226;2023-04-25T06:19:59;9.00;99.90
20714;DHT22;10518;50.742;4.226;2023-04-25T06:22:25;9.30;99.90
20714;DHT22;10518;50.742;4.226;2023-04-25T06:24:50;9.60;99.90
20714;DHT22;10518;50.742;4.226;2023-04-25T06:27:16;9.50;99.90
20714;DHT22;10518;50.742;4.226;2023-04-25T06:29:41;9.70;99.90
20714;DHT22;10518;50.742;4.226;2023-04-25T06:32:07;9.50;99.90
20714;DHT22;10518;50.742;4.226;2023-04-25T06:34:33;9.50;99.90
20714;DHT22;10518;50.742;4.226;2023-04-25T06:36:58;9.50;99.90
20714;DHT22;10518;50.742;4.226;2023-04-25T06:39:24;9.40;99.90
20714;DHT22;10518;50.742;4.226;2023-04-25T06:41:50;9.50;99.90
20714;DHT22;10518;50.742;4.226;2023-04-25T06:44:16;9.70;99.90
20714;DHT22;10518;50.742;4.226;2023-04-25T06:46:42;9.50;99.90
20714;DHT22;10518;50.742;4.226;2023-04-25T06:49:07;9.10;99.90
20714;DHT22;10518;50.742;4.226;2023-04-25T06:51:33;9.30;99.90
20714;DHT22;10518;50.742;4.226;2023-04-25T06:53:59;9.80;99.90
20714;DHT22;10518;50.742;4.226;2023-04-25T06:56:25;9.70;99.90
20714;DHT22;10518;50.742;4.226;2023-04-25T06:58:50;9.60;99.90
20714;DHT22;10518;50.742;4.226;2023-04-25T07:01:16;9.80;99.90
20714;DHT22;10518;50.742;4.226;2023-04-25T07:03:42;9.80;99.90
20714;DHT22;10518;50.742;4.226;2023-04-25T07:06:07;9.60;99.90
20714;DHT22;10518;50.742;4.226;2023-04-25T07:08:33;9.80;99.90
20714;DHT22;10518;50.742;4.226;2023-04-25T07:10:59;9.80;99.90
20714;DHT22;10518;50.742;4.226;2023-04-25T07:13:24;10.00;99.90
20714;DHT22;10518;50.742;4.226;2023-04-25T07:15:50;10.10;99.90
20714;DHT22;10518;50.742;4.226;2023-04-25T07:18:16;10.50;99.90
20714;DHT22;10518;50.742;4.226;2023-04-25T07:20:41;10.60;99.90
20714;DHT22;10518;50.742;4.226;2023-04-25T07:23:07;10.40;99.90
20714;DHT22;10518;50.742;4.226;2023-04-25T07:25:33;10.40;99.90
20714;DHT22;10518;50.742;4.226;2023-04-25T07:27:58;10.20;99.90
20714;DHT22;10518;50.742;4.226;2023-04-25T07:30:24;10.50;99.90
20714;DHT22;10518;50.742;4.226;2023-04-25T07:32:50;10.40;99.90
20714;DHT22;10518;50.742;4.226;2023-04-25T07:35:16;10.50;99.90
20714;DHT22;10518;50.742;4.226;2023-04-25T07:37:42;10.60;99.90
20714;DHT22;10518;50.742;4.226;2023-04-25T07:40:08;10.50;99.90
20714;DHT22;10518;50.742;4.226;2023-04-25T07:42:35;10.40;99.90
20714;DHT22;10518;50.742;4.226;2023-04-25T07:45:01;10.60;99.90
20714;DHT22;10518;50.742;4.226;2023-04-25T07:47:27;10.70;99.90
20714;DHT22;10518;50.742;4.226;2023-04-25T07:49:52;10.80;99.90
20714;DHT22;10518;50.742;4.226;2023-04-25T07:52:18;11.10;99.90
20714;DHT22;10518;50.742;4.226;2023-04-25T07:54:43;11.20;99.90
20714;DHT22;10518;50.742;4.226;2023-04-25T07:57:09;11.50;99.90
20714;DHT22;10518;50.742;4.226;2023-04-25T07:59:35;11.90;99.90
20714;DHT22;10518;50.742;4.226;2023-04-25T08:02:01;12.20;99.90
20714;DHT22;10518;50.742;4.226;2023-04-25T08:04:27;12.30;99.90
20714;DHT22;10518;50.742;4.226;2023-04-25T08:06:53;12.30;99.90
20714;DHT22;10518;50.742;4.226;2023-04-25T08:09:19;12.20;99.90
20714;DHT22;10518;50.742;4.226;2023-04-25T08:11:46;12.20;99.90
20714;DHT22;10518;50.742;4.226;2023-04-25T08:14:12;11.80;99.90
20714;DHT22;10518;50.742;4.226;2023-04-25T08:16:38;10.80;99.90
20714;DHT22;10518;50.742;4.226;2023-04-25T08:19:04;10.60;99.90
20714;DHT22;10518;50.742;4.226;2023-04-25T08:21:30;11.20;99.90
20714;DHT22;10518;50.742;4.226;2023-04-25T08:23:57;10.80;99.90
20714;DHT22;10518;50.742;4.226;2023-04-25T08:26:24;10.70;99.90
20714;DHT22;10518;50.742;4.226;2023-04-25T08:28:50;10.80;99.90
20714;DHT22;10518;50.742;4.226;2023-04-25T08:31:15;11.10;99.90
20714;DHT22;10518;50.742;4.226;2023-04-25T08:33:41;11.40;99.90
20714;DHT22;10518;50.742;4.226;2023-04-25T08:36:06;11.90;99.90
20714;DHT22;10518;50.742;4.226;2023-04-25T08:38:32;12.60;99.90
20714;DHT22;10518;50.742;4.226;2023-04-25T08:41:00;12.90;99.90
20714;DHT22;10518;50.742;4.226;2023-04-25T08:43:26;12.80;99.90
20714;DHT22;10518;50.742;4.226;2023-04-25T08:45:59;12.70;99.90
20714;DHT22;10518;50.742;4.226;2023-04-25T08:48:27;12.90;99.90
20714;DHT22;10518;50.742;4.226;2023-04-25T08:50:55;13.00;99.90
20714;DHT22;10518;50.742;4.226;2023-04-25T08:53:30;12.60;99.90
20714;DHT22;10518;50.742;4.226;2023-04-25T08:55:57;12.30;99.90
20714;DHT22;10518;50.742;4.226;2023-04-25T08:58:23;12.20;99.90
20714;DHT22;10518;50.742;4.226;2023-04-25T09:00:51;12.70;99.90
20714;DHT22;10518;50.742;4.226;2023-04-25T09:03:19;12.60;99.90
20714;DHT22;10518;50.742;4.226;2023-04-25T09:05:45;12.80;99.90
20714;DHT22;10518;50.742;4.226;2023-04-25T09:08:11;13.00;99.90
20714;DHT22;10518;50.742;4.226;2023-04-25T09:10:37;12.90;99.90
20714;DHT22;10518;50.742;4.226;2023-04-25T09:13:07;12.80;99.90
20714;DHT22;10518;50.742;4.226;2023-04-25T09:15:52;12.70;99.90
20714;DHT22;10518;50.742;4.226;2023-04-25T09:18:32;13.00;99.90
20714;DHT22;10518;50.742;4.226;2023-04-25T09:23:30;13.10;99.90
20714;DHT22;10518;50.742;4.226;2023-04-25T09:25:56;12.80;99.90
20714;DHT22;10518;50.742;4.226;2023-04-25T09:28:26;12.90;99.90
20714;DHT22;10518;50.742;4.226;2023-04-25T09:30:56;12.90;99.90
20714;DHT22;10518;50.742;4.226;2023-04-25T09:33:33;13.20;99.90
20714;DHT22;10518;50.742;4.226;2023-04-25T09:36:06;13.30;99.90
20714;DHT22;10518;50.742;4.226;2023-04-25T09:38:43;13.20;99.90
20714;DHT22;10518;50.742;4.226;2023-04-25T09:41:10;12.70;99.90
20714;DHT22;10518;50.742;4.226;2023-04-25T09:43:36;12.50;99.90
20714;DHT22;10518;50.742;4.226;2023-04-25T09:46:04;12.30;99.90
20714;DHT22;10518;50.742;4.226;2023-04-25T09:48:32;12.10;99.90
20714;DHT22;10518;50.742;4.226;2023-04-25T09:51:09;12.10;99.90
20714;DHT22;10518;50.742;4.226;2023-04-25T09:53:37;12.00;99.90
20714;DHT22;10518;50.742;4.226;2023-04-25T09:56:04;12.20;99.90
20714;DHT22;10518;50.742;4.226;2023-04-25T09:58:31;12.50;99.90
20714;DHT22;10518;50.742;4.226;2023-04-25T10:01:08;12.20;99.90
20714;DHT22;10518;50.742;4.226;2023-04-25T10:03:37;12.30;99.90
20714;DHT22;10518;50.742;4.226;2023-04-25T10:06:08;12.40;99.90
20714;DHT22;10518;50.742;4.226;2023-04-25T10:08:37;12.50;99.90
20714;DHT22;10518;50.742;4.226;2023-04-25T10:11:05;12.60;99.90
20714;DHT22;10518;50.742;4.226;2023-04-25T10:13:31;12.00;99.90
20714;DHT22;10518;50.742;4.226;2023-04-25T10:16:02;11.70;99.90
20714;DHT22;10518;50.742;4.226;2023-04-25T10:18:29;12.00;99.90
20714;DHT22;10518;50.742;4.226;2023-04-25T10:20:57;12.10;99.90
20714;DHT22;10518;50.742;4.226;2023-04-25T10:23:23;12.50;99.90
20714;DHT22;10518;50.742;4.226;2023-04-25T10:25:50;12.30;99.90
20714;DHT22;10518;50.742;4.226;2023-04-25T10:28:17;12.50;99.90
20714;DHT22;10518;50.742;4.226;2023-04-25T10:31:02;12.30;99.90
20714;DHT22;10518;50.742;4.226;2023-04-25T10:33:37;12.50;99.90
20714;DHT22;10518;50.742;4.226;2023-04-25T10:36:19;12.20;99.90
20714;DHT22;10518;50.742;4.226;2023-04-25T10:38:47;12.70;99.90
20714;DHT22;10518;50.742;4.226;2023-04-25T10:41:14;13.00;99.90
20714;DHT22;10518;50.742;4.226;2023-04-25T10:43:47;13.20;99.90
20714;DHT22;10518;50.742;4.226;2023-04-25T10:48:49;13.50;99.90
20714;DHT22;10518;50.742;4.226;2023-04-25T10:51:17;13.50;99.90
20714;DHT22;10518;50.742;4.226;2023-04-25T10:53:47;13.20;99.90
20714;DHT22;10518;50.742;4.226;2023-04-25T10:56:21;12.80;99.90
20714;DHT22;10518;50.742;4.226;2023-04-25T10:58:48;12.30;99.90
20714;DHT22;10518;50.742;4.226;2023-04-25T11:01:15;12.00;99.90
20714;DHT22;10518;50.742;4.226;2023-04-25T11:03:44;11.60;99.90
20714;DHT22;10518;50.742;4.226;2023-04-25T11:08:49;10.80;99.90
20714;DHT22;10518;50.742;4.226;2023-04-25T11:11:17;10.90;99.90
20714;DHT22;10518;50.742;4.226;2023-04-25T11:13:43;11.00;99.90
20714;DHT22;10518;50.742;4.226;2023-04-25T11:16:08;11.00;99.90
20714;DHT22;10518;50.742;4.226;2023-04-25T11:18:34;10.90;99.90
20714;DHT22;10518;50.742;4.226;2023-04-25T11:21:00;10.90;99.90
20714;DHT22;10518;50.742;4.226;2023-04-25T11:23:26;10.80;99.90
20714;DHT22;10518;50.742;4.226;2023-04-25T11:25:52;10.80;99.90
20714;DHT22;10518;50.742;4.226;2023-04-25T11:28:21;10.90;99.90
20714;DHT22;10518;50.742;4.226;2023-04-25T11:30:49;11.20;99.90
20714;DHT22;10518;50.742;4.226;2023-04-25T11:33:16;11.70;99.90
20714;DHT22;10518;50.742;4.226;2023-04-25T11:35:42;11.60;99.90
20714;DHT22;10518;50.742;4.226;2023-04-25T11:38:07;11.40;99.90
20714;DHT22;10518;50.742;4.226;2023-04-25T11:40:35;11.70;99.90
20714;DHT22;10518;50.742;4.226;2023-04-25T11:43:01;11.80;99.90
20714;DHT22;10518;50.742;4.226;2023-04-25T11:45:27;11.60;99.90
20714;DHT22;10518;50.742;4.226;2023-04-25T11:47:52;11.30;99.90
20714;DHT22;10518;50.742;4.226;2023-04-25T11:50:18;11.30;99.90
20714;DHT22;10518;50.742;4.226;2023-04-25T11:52:47;11.50;99.90
20714;DHT22;10518;50.742;4.226;2023-04-25T11:55:15;11.30;99.90
20714;DHT22;10518;50.742;4.226;2023-04-25T11:57:42;11.20;99.90
20714;DHT22;10518;50.742;4.226;2023-04-25T12:00:21;11.10;99.90
20714;DHT22;10518;50.742;4.226;2023-04-25T12:02:52;11.40;99.90
20714;DHT22;10518;50.742;4.226;2023-04-25T12:05:18;11.90;99.90
20714;DHT22;10518;50.742;4.226;2023-04-25T12:07:46;11.60;99.90
20714;DHT22;10518;50.742;4.226;2023-04-25T12:10:13;11.80;99.90
20714;DHT22;10518;50.742;4.226;2023-04-25T12:12:44;12.20;99.90
20714;DHT22;10518;50.742;4.226;2023-04-25T12:15:13;11.90;99.90
20714;DHT22;10518;50.742;4.226;2023-04-25T12:17:42;11.90;99.90
20714;DHT22;10518;50.742;4.226;2023-04-25T12:20:14;12.30;99.90
20714;DHT22;10518;50.742;4.226;2023-04-25T12:22:41;12.10;99.90
20714;DHT22;10518;50.742;4.226;2023-04-25T12:25:10;12.30;99.90
20714;DHT22;10518;50.742;4.226;2023-04-25T12:27:36;12.30;99.90
20714;DHT22;10518;50.742;4.226;2023-04-25T12:30:02;12.50;99.90
20714;DHT22;10518;50.742;4.226;2023-04-25T12:32:29;12.60;99.90
20714;DHT22;10518;50.742;4.226;2023-04-25T12:34:54;12.70;99.90
20714;DHT22;10518;50.742;4.226;2023-04-25T12:37:20;12.60;99.90
20714;DHT22;10518;50.742;4.226;2023-04-25T12:39:46;12.60;99.90
20714;DHT22;10518;50.742;4.226;2023-04-25T12:42:11;12.70;99.90
20714;DHT22;10518;50.742;4.226;2023-04-25T12:44:38;12.80;99.90
20714;DHT22;10518;50.742;4.226;2023-04-25T12:47:03;12.90;99.90
20714;DHT22;10518;50.742;4.226;2023-04-25T12:49:29;12.80;99.90
20714;DHT22;10518;50.742;4.226;2023-04-25T12:51:55;12.80;99.90
20714;DHT22;10518;50.742;4.226;2023-04-25T12:54:20;12.30;99.90
20714;DHT22;10518;50.742;4.226;2023-04-25T12:56:46;12.00;99.90
20714;DHT22;10518;50.742;4.226;2023-04-25T12:59:12;12.00;99.90
20714;DHT22;10518;50.742;4.226;2023-04-25T13:01:38;12.00;99.90
20714;DHT22;10518;50.742;4.226;2023-04-25T13:04:04;12.00;99.90
20714;DHT22;10518;50.742;4.226;2023-04-25T13:06:29;12.20;99.90
20714;DHT22;10518;50.742;4.226;2023-04-25T13:08:56;12.40;99.90
20714;DHT22;10518;50.742;4.226;2023-04-25T13:11:21;12.70;99.90
20714;DHT22;10518;50.742;4.226;2023-04-25T13:13:47;12.60;99.90
20714;DHT22;10518;50.742;4.226;2023-04-25T13:16:13;12.10;99.90
20714;DHT22;10518;50.742;4.226;2023-04-25T13:18:40;12.30;99.90
20714;DHT22;10518;50.742;4.226;2023-04-25T13:21:05;12.60;99.90
20714;DHT22;10518;50.742;4.226;2023-04-25T13:23:31;12.80;99.90
20714;DHT22;10518;50.742;4.226;2023-04-25T13:25:57;12.90;99.90
20714;DHT22;10518;50.742;4.226;2023-04-25T13:28:23;13.00;99.90
20714;DHT22;10518;50.742;4.226;2023-04-25T13:30:50;13.20;99.90
20714;DHT22;10518;50.742;4.226;2023-04-25T13:33:15;13.60;99.90
20714;DHT22;10518;50.742;4.226;2023-04-25T13:35:41;13.50;99.90
20714;DHT22;10518;50.742;4.226;2023-04-25T13:38:07;13.50;99.90
20714;DHT22;10518;50.742;4.226;2023-04-25T13:40:34;13.30;99.90
20714;DHT22;10518;50.742;4.226;2023-04-25T13:43:00;13.10;99.90
20714;DHT22;10518;50.742;4.226;2023-04-25T13:45:26;12.60;99.90
20714;DHT22;10518;50.742;4.226;2023-04-25T13:47:52;12.20;99.90
20714;DHT22;10518;50.742;4.226;2023-04-25T13:50:17;12.10;99.90
20714;DHT22;10518;50.742;4.226;2023-04-25T13:52:43;12.30;99.90
20714;DHT22;10518;50.742;4.226;2023-04-25T13:55:09;12.70;99.90
20714;DHT22;10518;50.742;4.226;2023-04-25T13:57:36;12.60;99.90
20714;DHT22;10518;50.742;4.226;2023-04-25T14:00:03;12.60;99.90
20714;DHT22;10518;50.742;4.226;2023-04-25T14:02:36;12.50;99.90
20714;DHT22;10518;50.742;4.226;2023-04-25T14:05:03;12.60;99.90
20714;DHT22;10518;50.742;4.226;2023-04-25T14:07:29;12.60;99.90
20714;DHT22;10518;50.742;4.226;2023-04-25T14:09:55;12.70;99.90
20714;DHT22;10518;50.742;4.226;2023-04-25T14:12:22;12.80;99.90
20714;DHT22;10518;50.742;4.226;2023-04-25T14:14:48;12.70;99.90
20714;DHT22;10518;50.742;4.226;2023-04-25T14:17:14;12.50;99.90
20714;DHT22;10518;50.742;4.226;2023-04-25T14:19:39;12.50;99.90
20714;DHT22;10518;50.742;4.226;2023-04-25T14:22:09;12.50;99.90
20714;DHT22;10518;50.742;4.226;2023-04-25T14:24:34;12.50;99.90
20714;DHT22;10518;50.742;4.226;2023-04-25T14:27:00;12.40;99.90
20714;DHT22;10518;50.742;4.226;2023-04-25T14:29:26;12.20;99.90
20714;DHT22;10518;50.742;4.226;2023-04-25T14:31:52;11.90;99.90
20714;DHT22;10518;50.742;4.226;2023-04-25T14:34:18;11.50;99.90
20714;DHT22;10518;50.742;4.226;2023-04-25T14:36:44;11.80;99.90
20714;DHT22;10518;50.742;4.226;2023-04-25T14:39:10;11.90;99.90
20714;DHT22;10518;50.742;4.226;2023-04-25T14:41:35;11.90;99.90
20714;DHT22;10518;50.742;4.226;2023-04-25T14:44:01;11.90;99.90
20714;DHT22;10518;50.742;4.226;2023-04-25T14:46:26;12.20;99.90
20714;DHT22;10518;50.742;4.226;2023-04-25T14:48:52;12.20;99.90
20714;DHT22;10518;50.742;4.226;2023-04-25T14:51:18;12.40;99.90
20714;DHT22;10518;50.742;4.226;2023-04-25T14:53:44;12.30;99.90
20714;DHT22;10518;50.742;4.226;2023-04-25T14:56:10;12.60;99.90
20714;DHT22;10518;50.742;4.226;2023-04-25T14:58:35;12.70;99.90
20714;DHT22;10518;50.742;4.226;2023-04-25T15:01:01;13.00;99.90
20714;DHT22;10518;50.742;4.226;2023-04-25T15:03:27;13.20;99.90
20714;DHT22;10518;50.742;4.226;2023-04-25T15:05:55;13.20;99.90
20714;DHT22;10518;50.742;4.226;2023-04-25T15:08:21;13.20;99.90
20714;DHT22;10518;50.742;4.226;2023-04-25T15:10:47;13.20;99.90
20714;DHT22;10518;50.742;4.226;2023-04-25T15:13:13;13.00;99.90
20714;DHT22;10518;50.742;4.226;2023-04-25T15:15:38;13.10;99.90
20714;DHT22;10518;50.742;4.226;2023-04-25T15:18:04;13.20;99.90
20714;DHT22;10518;50.742;4.226;2023-04-25T15:20:30;13.20;99.90
20714;DHT22;10518;50.742;4.226;2023-04-25T15:22:56;13.10;99.90
20714;DHT22;10518;50.742;4.226;2023-04-25T15:25:22;13.30;99.90
20714;DHT22;10518;50.742;4.226;2023-04-25T15:27:47;13.10;99.90
20714;DHT22;10518;50.742;4.226;2023-04-25T15:30:17;13.10;99.90
20714;DHT22;10518;50.742;4.226;2023-04-25T15:32:47;12.80;99.90
20714;DHT22;10518;50.742;4.226;2023-04-25T15:35:13;12.70;99.90
20714;DHT22;10518;50.742;4.226;2023-04-25T15:37:39;12.50;99.90
20714;DHT22;10518;50.742;4.226;2023-04-25T15:40:14;12.20;99.90
20714;DHT22;10518;50.742;4.226;2023-04-25T15:42:50;12.40;99.90